sensor_id;sensor_type;location;lat;lon;timestamp;pressure;altitude;pressure_sealevel;temperature;humidity
29045;BME280;16133;49.486;12.176;2023-06-10T00:01:59;97104.47;;;12.41;100.00
29045;BME280;16133;49.486;12.176;2023-06-10T00:04:27;97111.63;;;12.41;100.00
29045;BME280;16133;49.486;12.176;2023-06-10T00:06:53;97103.63;;;12.41;100.00
29045;BME280;16133;49.486;12.176;2023-06-10T00:09:19;97103.63;;;12.41;100.00
29045;BME280;16133;49.486;12.176;2023-06-10T00:11:46;97098.09;;;12.42;100.00
29045;BME280;16133;49.486;12.176;2023-06-10T00:14:12;97093.19;;;12.46;100.00
29045;BME280;16133;49.486;12.176;2023-06-10T00:16:38;97093.84;;;12.48;100.00
29045;BME280;16133;49.486;12.176;2023-06-10T00:19:04;97086.47;;;12.50;100.00
29045;BME280;16133;49.486;12.176;2023-06-10T00:21:31;97088.09;;;12.51;100.00
29045;BME280;16133;49.486;12.176;2023-06-10T00:24:04;97089.34;;;12.55;100.00
29045;BME280;16133;49.486;12.176;2023-06-10T00:26:31;97093.44;;;12.58;100.00
29045;BME280;16133;49.486;12.176;2023-06-10T00:28:56;97094.28;;;12.58;100.00
29045;BME280;16133;49.486;12.176;2023-06-10T00:31:21;97088.75;;;12.53;100.00
29045;BME280;16133;49.486;12.176;2023-06-10T00:33:47;97100.16;;;12.47;100.00
29045;BME280;16133;49.486;12.176;2023-06-10T00:36:12;97105.25;;;12.42;100.00
29045;BME280;16133;49.486;12.176;2023-06-10T00:38:37;97095.00;;;12.32;100.00
29045;BME280;16133;49.486;12.176;2023-06-10T00:41:03;97091.28;;;12.27;100.00
29045;BME280;16133;49.486;12.176;2023-06-10T00:43:28;97092.53;;;12.31;100.00
29045;BME280;16133;49.486;12.176;2023-06-10T00:45:54;97101.91;;;12.27;100.00
29045;BME280;16133;49.486;12.176;2023-06-10T00:48:19;97095.34;;;12.23;100.00
29045;BME280;16133;49.486;12.176;2023-06-10T00:50:46;97091.66;;;12.17;100.00
29045;BME280;16133;49.486;12.176;2023-06-10T00:53:12;97091.22;;;12.14;100.00
29045;BME280;16133;49.486;12.176;2023-06-10T00:55:37;97078.94;;;12.13;100.00
29045;BME280;16133;49.486;12.176;2023-06-10T00:58:03;97084.44;;;12.11;100.00
29045;BME280;16133;49.486;12.176;2023-06-10T01:00:29;97088.56;;;12.14;100.00
29045;BME280;16133;49.486;12.176;2023-06-10T01:02:54;97080.59;;;12.14;100.00
29045;BME280;16133;49.486;12.176;2023-06-10T01:05:20;97081.41;;;12.14;100.00
29045;BME280;16133;49.486;12.176;2023-06-10T01:10:44;97071.22;;;12.24;100.00
29045;BME280;16133;49.486;12.176;2023-06-10T01:13:15;97069.78;;;12.22;100.00
29045;BME280;16133;49.486;12.176;2023-06-10T01:15:41;97070.38;;;12.17;100.00
29045;BME280;16133;49.486;12.176;2023-06-10T01:18:08;97074.63;;;12.12;100.00
29045;BME280;16133;49.486;12.176;2023-06-10T01:20:36;97079.75;;;12.07;100.00
29045;BME280;16133;49.486;12.176;2023-06-10T01:23:05;97080.31;;;12.02;100.00
29045;BME280;16133;49.486;12.176;2023-06-10T01:25:32;97078.88;;;12.00;100.00
29045;BME280;16133;49.486;12.176;2023-06-10T01:30:59;97068.63;;;11.96;100.00
29045;BME280;16133;49.486;12.176;2023-06-10T01:33:31;97062.28;;;11.97;100.00
29045;BME280;16133;49.486;12.176;2023-06-10T01:35:59;97049.81;;;11.91;100.00
29045;BME280;16133;49.486;12.176;2023-06-10T01:38:27;97060.66;;;11.96;100.00
29045;BME280;16133;49.486;12.176;2023-06-10T01:40:56;97059.81;;;11.96;100.00
29045;BME280;16133;49.486;12.176;2023-06-10T01:43:22;97061.44;;;11.90;100.00
29045;BME280;16133;49.486;12.176;2023-06-10T01:45:47;97063.25;;;11.83;100.00
29045;BME280;16133;49.486;12.176;2023-06-10T01:48:13;97061.34;;;11.77;100.00
29045;BME280;16133;49.486;12.176;2023-06-10T01:50:38;97070.13;;;11.71;100.00
29045;BME280;16133;49.486;12.176;2023-06-10T01:53:04;97070.47;;;11.68;100.00
29045;BME280;16133;49.486;12.176;2023-06-10T01:55:30;97060.69;;;11.69;100.00
29045;BME280;16133;49.486;12.176;2023-06-10T01:57:56;97068.00;;;11.67;100.00
29045;BME280;16133;49.486;12.176;2023-06-10T02:00:21;97071.50;;;11.67;100.00
29045;BME280;16133;49.486;12.176;2023-06-10T02:02:46;97057.44;;;11.73;100.00
29045;BME280;16133;49.486;12.176;2023-06-10T02:05:12;97051.13;;;11.74;100.00
29045;BME280;16133;49.486;12.176;2023-06-10T02:07:37;97040.31;;;11.76;100.00
29045;BME280;16133;49.486;12.176;2023-06-10T02:10:04;97035.59;;;11.78;100.00
29045;BME280;16133;49.486;12.176;2023-06-10T02:12:30;97025.09;;;11.70;100.00
29045;BME280;16133;49.486;12.176;2023-06-10T02:14:55;97035.59;;;11.78;100.00
29045;BME280;16133;49.486;12.176;2023-06-10T02:17:20;97037.25;;;11.79;100.00
29045;BME280;16133;49.486;12.176;2023-06-10T02:19:46;97036.59;;;11.77;100.00
29045;BME280;16133;49.486;12.176;2023-06-10T02:22:17;97040.31;;;11.76;100.00
29045;BME280;16133;49.486;12.176;2023-06-10T02:24:43;97046.81;;;11.73;100.00
29045;BME280;16133;49.486;12.176;2023-06-10T02:27:08;97052.34;;;11.72;100.00
29045;BME280;16133;49.486;12.176;2023-06-10T02:29:34;97046.31;;;11.63;100.00
29045;BME280;16133;49.486;12.176;2023-06-10T02:32:01;97060.19;;;11.59;100.00
29045;BME280;16133;49.486;12.176;2023-06-10T02:34:27;97060.97;;;11.52;100.00
29045;BME280;16133;49.486;12.176;2023-06-10T02:36:52;97059.75;;;11.55;100.00
29045;BME280;16133;49.486;12.176;2023-06-10T02:39:18;97048.50;;;11.53;100.00
29045;BME280;16133;49.486;12.176;2023-06-10T02:41:43;97050.75;;;11.49;100.00
29045;BME280;16133;49.486;12.176;2023-06-10T02:44:08;97049.28;;;11.47;100.00
29045;BME280;16133;49.486;12.176;2023-06-10T02:46:33;97047.00;;;11.44;100.00
29045;BME280;16133;49.486;12.176;2023-06-10T02:48:59;97054.13;;;11.37;100.00
29045;BME280;16133;49.486;12.176;2023-06-10T02:51:25;97061.66;;;11.33;100.00
29045;BME280;16133;49.486;12.176;2023-06-10T02:53:50;97057.53;;;11.31;100.00
29045;BME280;16133;49.486;12.176;2023-06-10T02:56:16;97052.22;;;11.31;100.00
29045;BME280;16133;49.486;12.176;2023-06-10T02:58:42;97045.88;;;11.32;100.00
29045;BME280;16133;49.486;12.176;2023-06-10T03:01:07;97046.09;;;11.30;100.00
29045;BME280;16133;49.486;12.176;2023-06-10T03:03:35;97046.69;;;11.26;100.00
29045;BME280;16133;49.486;12.176;2023-06-10T03:06:02;97039.97;;;11.30;100.00
29045;BME280;16133;49.486;12.176;2023-06-10T03:08:28;97034.88;;;11.35;100.00
29045;BME280;16133;49.486;12.176;2023-06-10T03:10:53;97025.06;;;11.35;100.00
29045;BME280;16133;49.486;12.176;2023-06-10T03:13:19;97024.63;;;11.32;100.00
29045;BME280;16133;49.486;12.176;2023-06-10T03:15:44;97032.00;;;11.30;100.00
29045;BME280;16133;49.486;12.176;2023-06-10T03:18:11;97034.22;;;11.26;100.00
29045;BME280;16133;49.486;12.176;2023-06-10T03:20:36;97032.38;;;11.27;100.00
29045;BME280;16133;49.486;12.176;2023-06-10T03:23:04;97035.84;;;11.27;100.00
29045;BME280;16133;49.486;12.176;2023-06-10T03:25:31;97029.53;;;11.28;100.00
29045;BME280;16133;49.486;12.176;2023-06-10T03:27:56;97028.31;;;11.31;100.00
29045;BME280;16133;49.486;12.176;2023-06-10T03:30:22;97038.56;;;11.34;100.00
29045;BME280;16133;49.486;12.176;2023-06-10T03:32:47;97034.09;;;11.34;100.00
29045;BME280;16133;49.486;12.176;2023-06-10T03:35:13;97041.22;;;11.34;100.00
29045;BME280;16133;49.486;12.176;2023-06-10T03:37:40;97046.31;;;11.35;100.00
29045;BME280;16133;49.486;12.176;2023-06-10T03:40:07;97044.94;;;11.39;100.00
29045;BME280;16133;49.486;12.176;2023-06-10T03:42:34;97038.41;;;11.42;100.00
29045;BME280;16133;49.486;12.176;2023-06-10T03:45:00;97037.19;;;11.44;100.00
29045;BME280;16133;49.486;12.176;2023-06-10T03:47:25;97032.56;;;11.53;100.00
29045;BME280;16133;49.486;12.176;2023-06-10T03:49:50;97034.03;;;11.62;100.00
29045;BME280;16133;49.486;12.176;2023-06-10T03:52:17;97041.03;;;11.70;100.00
29045;BME280;16133;49.486;12.176;2023-06-10T03:54:42;97041.34;;;11.81;100.00
29045;BME280;16133;49.486;12.176;2023-06-10T03:57:08;97045.69;;;11.89;100.00
29045;BME280;16133;49.486;12.176;2023-06-10T03:59:33;97049.41;;;11.94;100.00
29045;BME280;16133;49.486;12.176;2023-06-10T04:01:58;97068.03;;;12.01;100.00
29045;BME280;16133;49.486;12.176;2023-06-10T04:04:25;97077.69;;;12.09;100.00
29045;BME280;16133;49.486;12.176;2023-06-10T04:06:51;97086.53;;;12.16;100.00
29045;BME280;16133;49.486;12.176;2023-06-10T04:09:16;97092.94;;;12.28;100.00
29045;BME280;16133;49.486;12.176;2023-06-10T04:11:42;97101.38;;;12.38;100.00
29045;BME280;16133;49.486;12.176;2023-06-10T04:14:08;97100.16;;;12.47;100.00
29045;BME280;16133;49.486;12.176;2023-06-10T04:16:33;97114.38;;;12.61;100.00
29045;BME280;16133;49.486;12.176;2023-06-10T04:18:59;97110.28;;;12.71;100.00
29045;BME280;16133;49.486;12.176;2023-06-10T04:21:26;97108.88;;;12.82;100.00
29045;BME280;16133;49.486;12.176;2023-06-10T04:23:51;97121.00;;;12.98;100.00
29045;BME280;16133;49.486;12.176;2023-06-10T04:26:17;97125.75;;;13.09;100.00
29045;BME280;16133;49.486;12.176;2023-06-10T04:28:43;97126.84;;;13.21;100.00
29045;BME280;16133;49.486;12.176;2023-06-10T04:31:08;97136.47;;;13.35;100.00
29045;BME280;16133;49.486;12.176;2023-06-10T04:33:34;97141.59;;;13.43;100.00
29045;BME280;16133;49.486;12.176;2023-06-10T04:36:00;97133.41;;;13.58;100.00
29045;BME280;16133;49.486;12.176;2023-06-10T04:38:25;97135.66;;;13.74;100.00
29045;BME280;16133;49.486;12.176;2023-06-10T04:40:51;97136.91;;;13.91;100.00
29045;BME280;16133;49.486;12.176;2023-06-10T04:43:17;97141.97;;;14.19;100.00
29045;BME280;16133;49.486;12.176;2023-06-10T04:45:42;97135.53;;;14.53;100.00
29045;BME280;16133;49.486;12.176;2023-06-10T04:48:10;97147.06;;;14.98;100.00
29045;BME280;16133;49.486;12.176;2023-06-10T04:50:36;97147.97;;;15.54;100.00
29045;BME280;16133;49.486;12.176;2023-06-10T04:53:02;97153.50;;;16.45;100.00
29045;BME280;16133;49.486;12.176;2023-06-10T04:55:27;97141.97;;;17.59;100.00
29045;BME280;16133;49.486;12.176;2023-06-10T04:57:53;97151.56;;;18.71;93.20
29045;BME280;16133;49.486;12.176;2023-06-10T05:00:18;97158.19;;;19.77;83.97
29045;BME280;16133;49.486;12.176;2023-06-10T05:02:44;97153.81;;;20.59;78.66
29045;BME280;16133;49.486;12.176;2023-06-10T05:05:10;97160.72;;;21.37;73.74
29045;BME280;16133;49.486;12.176;2023-06-10T05:07:35;97160.63;;;22.12;67.66
29045;BME280;16133;49.486;12.176;2023-06-10T05:10:00;97165.94;;;22.34;66.59
29045;BME280;16133;49.486;12.176;2023-06-10T05:12:26;97161.91;;;22.83;64.32
29045;BME280;16133;49.486;12.176;2023-06-10T05:14:52;97162.84;;;23.14;62.71
29045;BME280;16133;49.486;12.176;2023-06-10T05:17:17;97170.28;;;23.54;60.83
29045;BME280;16133;49.486;12.176;2023-06-10T05:19:43;97169.56;;;23.99;58.90
29045;BME280;16133;49.486;12.176;2023-06-10T05:22:09;97165.78;;;24.25;57.88
29045;BME280;16133;49.486;12.176;2023-06-10T05:24:34;97175.50;;;24.52;56.65
29045;BME280;16133;49.486;12.176;2023-06-10T05:27:00;97169.50;;;24.70;55.50
29045;BME280;16133;49.486;12.176;2023-06-10T05:29:25;97175.97;;;24.89;55.23
29045;BME280;16133;49.486;12.176;2023-06-10T05:31:51;97167.78;;;25.04;54.25
29045;BME280;16133;49.486;12.176;2023-06-10T05:34:16;97164.44;;;25.22;54.48
29045;BME280;16133;49.486;12.176;2023-06-10T05:36:42;97160.97;;;25.66;52.55
29045;BME280;16133;49.486;12.176;2023-06-10T05:39:09;97166.31;;;25.81;51.70
29045;BME280;16133;49.486;12.176;2023-06-10T05:41:34;97167.91;;;25.87;51.26
29045;BME280;16133;49.486;12.176;2023-06-10T05:44:00;97168.91;;;25.96;50.99
29045;BME280;16133;49.486;12.176;2023-06-10T05:46:25;97165.75;;;25.84;50.73
29045;BME280;16133;49.486;12.176;2023-06-10T05:48:50;97167.56;;;25.55;51.76
29045;BME280;16133;49.486;12.176;2023-06-10T05:51:16;97169.38;;;25.69;51.03
29045;BME280;16133;49.486;12.176;2023-06-10T05:53:41;97174.25;;;25.73;51.44
29045;BME280;16133;49.486;12.176;2023-06-10T05:56:06;97163.31;;;25.83;50.93
29045;BME280;16133;49.486;12.176;2023-06-10T05:58:32;97166.44;;;26.00;51.20
29045;BME280;16133;49.486;12.176;2023-06-10T06:00:57;97173.13;;;26.17;50.28
29045;BME280;16133;49.486;12.176;2023-06-10T06:03:23;97164.44;;;26.10;50.16
29045;BME280;16133;49.486;12.176;2023-06-10T06:05:48;97164.72;;;26.14;50.02
29045;BME280;16133;49.486;12.176;2023-06-10T06:08:14;97174.44;;;26.25;49.94
29045;BME280;16133;49.486;12.176;2023-06-10T06:10:42;97177.78;;;26.46;49.25
29045;BME280;16133;49.486;12.176;2023-06-10T06:13:07;97172.78;;;26.53;49.05
29045;BME280;16133;49.486;12.176;2023-06-10T06:15:33;97166.00;;;26.55;49.59
29045;BME280;16133;49.486;12.176;2023-06-10T06:17:58;97171.84;;;26.68;48.62
29045;BME280;16133;49.486;12.176;2023-06-10T06:20:23;97163.56;;;26.78;48.58
29045;BME280;16133;49.486;12.176;2023-06-10T06:22:49;97163.28;;;26.79;47.87
29045;BME280;16133;49.486;12.176;2023-06-10T06:25:14;97169.78;;;26.83;48.14
29045;BME280;16133;49.486;12.176;2023-06-10T06:27:40;97168.66;;;26.89;47.58
29045;BME280;16133;49.486;12.176;2023-06-10T06:30:06;97166.09;;;26.69;48.19
29045;BME280;16133;49.486;12.176;2023-06-10T06:32:31;97158.16;;;26.20;48.48
29045;BME280;16133;49.486;12.176;2023-06-10T06:34:57;97168.63;;;25.64;49.82
29045;BME280;16133;49.486;12.176;2023-06-10T06:37:23;97176.03;;;25.43;50.14
29045;BME280;16133;49.486;12.176;2023-06-10T06:39:53;97166.38;;;25.22;50.50
29045;BME280;16133;49.486;12.176;2023-06-10T06:42:19;97170.56;;;24.84;52.08
29045;BME280;16133;49.486;12.176;2023-06-10T06:44:46;97171.75;;;24.38;52.79
29045;BME280;16133;49.486;12.176;2023-06-10T06:47:11;97167.91;;;24.08;54.32
29045;BME280;16133;49.486;12.176;2023-06-10T06:49:37;97161.38;;;23.64;55.16
29045;BME280;16133;49.486;12.176;2023-06-10T06:52:03;97164.63;;;23.46;56.56
29045;BME280;16133;49.486;12.176;2023-06-10T06:54:28;97177.63;;;23.49;57.13
29045;BME280;16133;49.486;12.176;2023-06-10T06:56:54;97173.16;;;23.27;56.80
29045;BME280;16133;49.486;12.176;2023-06-10T06:59:19;97169.34;;;23.13;57.21
29045;BME280;16133;49.486;12.176;2023-06-10T07:01:46;97174.13;;;22.96;58.25
29045;BME280;16133;49.486;12.176;2023-06-10T07:04:11;97174.09;;;22.86;58.76
29045;BME280;16133;49.486;12.176;2023-06-10T07:06:37;97174.72;;;23.03;59.09
29045;BME280;16133;49.486;12.176;2023-06-10T07:09:04;97173.66;;;23.09;58.19
29045;BME280;16133;49.486;12.176;2023-06-10T07:11:29;97181.69;;;22.89;59.05
29045;BME280;16133;49.486;12.176;2023-06-10T07:13:55;97178.41;;;22.82;59.19
29045;BME280;16133;49.486;12.176;2023-06-10T07:16:21;97181.00;;;22.67;59.47
29045;BME280;16133;49.486;12.176;2023-06-10T07:18:46;97183.16;;;22.65;59.25
29045;BME280;16133;49.486;12.176;2023-06-10T07:21:12;97188.56;;;22.65;61.48
29045;BME280;16133;49.486;12.176;2023-06-10T07:23:37;97190.09;;;22.51;60.45
29045;BME280;16133;49.486;12.176;2023-06-10T07:26:06;97189.97;;;22.35;60.93
29045;BME280;16133;49.486;12.176;2023-06-10T07:28:32;97195.25;;;22.52;61.40
29045;BME280;16133;49.486;12.176;2023-06-10T07:30:58;97194.59;;;22.72;61.22
29045;BME280;16133;49.486;12.176;2023-06-10T07:33:23;97206.47;;;22.71;61.25
29045;BME280;16133;49.486;12.176;2023-06-10T07:35:49;97188.69;;;22.85;60.76
29045;BME280;16133;49.486;12.176;2023-06-10T07:38:14;97199.06;;;22.98;59.38
29045;BME280;16133;49.486;12.176;2023-06-10T07:40:40;97182.31;;;23.11;59.26
29045;BME280;16133;49.486;12.176;2023-06-10T07:43:05;97199.19;;;23.39;59.47
29045;BME280;16133;49.486;12.176;2023-06-10T07:45:30;97195.25;;;23.66;58.13
29045;BME280;16133;49.486;12.176;2023-06-10T07:47:56;97191.78;;;23.91;57.75
29045;BME280;16133;49.486;12.176;2023-06-10T07:50:21;97194.47;;;24.01;57.16
29045;BME280;16133;49.486;12.176;2023-06-10T07:52:46;97198.56;;;23.99;56.22
29045;BME280;16133;49.486;12.176;2023-06-10T07:55:12;97198.00;;;24.12;57.22
29045;BME280;16133;49.486;12.176;2023-06-10T07:57:37;97191.53;;;24.33;57.06
29045;BME280;16133;49.486;12.176;2023-06-10T08:00:04;97198.59;;;24.29;55.90
29045;BME280;16133;49.486;12.176;2023-06-10T08:02:31;97193.41;;;24.12;55.29
29045;BME280;16133;49.486;12.176;2023-06-10T08:04:56;97194.22;;;23.98;56.10
29045;BME280;16133;49.486;12.176;2023-06-10T08:07:21;97195.00;;;23.93;56.31
29045;BME280;16133;49.486;12.176;2023-06-10T08:09:47;97194.50;;;23.91;56.45
29045;BME280;16133;49.486;12.176;2023-06-10T08:12:13;97192.31;;;23.93;55.99
29045;BME280;16133;49.486;12.176;2023-06-10T08:14:49;97171.44;;;23.84;55.49
29045;BME280;16133;49.486;12.176;2023-06-10T08:17:15;97193.41;;;24.02;54.86
29045;BME280;16133;49.486;12.176;2023-06-10T08:19:40;97196.09;;;23.92;55.53
29045;BME280;16133;49.486;12.176;2023-06-10T08:22:05;97198.56;;;24.09;55.80
29045;BME280;16133;49.486;12.176;2023-06-10T08:24:31;97203.22;;;24.18;55.73
29045;BME280;16133;49.486;12.176;2023-06-10T08:26:56;97206.44;;;24.51;54.66
29045;BME280;16133;49.486;12.176;2023-06-10T08:29:23;97214.84;;;24.64;54.06
29045;BME280;16133;49.486;12.176;2023-06-10T08:31:48;97207.75;;;24.79;53.33
29045;BME280;16133;49.486;12.176;2023-06-10T08:34:14;97211.31;;;24.64;53.40
29045;BME280;16133;49.486;12.176;2023-06-10T08:36:39;97215.38;;;24.66;53.38
29045;BME280;16133;49.486;12.176;2023-06-10T08:39:05;97216.16;;;24.92;53.00
29045;BME280;16133;49.486;12.176;2023-06-10T08:41:35;97216.66;;;25.09;52.73
29045;BME280;16133;49.486;12.176;2023-06-10T08:44:09;97215.31;;;24.97;51.85
29045;BME280;16133;49.486;12.176;2023-06-10T08:46:36;97216.59;;;25.14;52.09
29045;BME280;16133;49.486;12.176;2023-06-10T08:49:06;97217.66;;;25.29;51.01
29045;BME280;16133;49.486;12.176;2023-06-10T08:51:35;97214.03;;;25.53;51.11
29045;BME280;16133;49.486;12.176;2023-06-10T08:54:05;97214.16;;;25.77;50.14
29045;BME280;16133;49.486;12.176;2023-06-10T08:56:39;97212.78;;;25.80;49.90
29045;BME280;16133;49.486;12.176;2023-06-10T08:59:05;97213.75;;;25.99;49.40
29045;BME280;16133;49.486;12.176;2023-06-10T09:01:30;97213.06;;;25.83;49.92
29045;BME280;16133;49.486;12.176;2023-06-10T09:03:58;97214.66;;;25.89;49.54
29045;BME280;16133;49.486;12.176;2023-06-10T09:06:25;97216.31;;;25.85;50.02
29045;BME280;16133;49.486;12.176;2023-06-10T09:08:50;97207.28;;;25.95;49.60
29045;BME280;16133;49.486;12.176;2023-06-10T09:11:16;97214.38;;;25.37;50.52
29045;BME280;16133;49.486;12.176;2023-06-10T09:13:42;97215.06;;;24.98;51.22
29045;BME280;16133;49.486;12.176;2023-06-10T09:16:07;97213.47;;;24.62;52.07
29045;BME280;16133;49.486;12.176;2023-06-10T09:18:32;97203.16;;;24.59;53.44
29045;BME280;16133;49.486;12.176;2023-06-10T09:20:59;97201.50;;;24.78;52.69
29045;BME280;16133;49.486;12.176;2023-06-10T09:23:25;97203.41;;;24.83;52.86
29045;BME280;16133;49.486;12.176;2023-06-10T09:25:57;97193.88;;;25.00;52.96
29045;BME280;16133;49.486;12.176;2023-06-10T09:28:23;97196.25;;;25.22;50.67
29045;BME280;16133;49.486;12.176;2023-06-10T09:30:49;97196.50;;;25.26;52.13
29045;BME280;16133;49.486;12.176;2023-06-10T09:33:15;97200.28;;;25.25;51.28
29045;BME280;16133;49.486;12.176;2023-06-10T09:35:48;97199.47;;;25.24;50.35
29045;BME280;16133;49.486;12.176;2023-06-10T09:38:23;97198.66;;;25.23;50.69
29045;BME280;16133;49.486;12.176;2023-06-10T09:40:52;97193.66;;;25.51;50.96
29045;BME280;16133;49.486;12.176;2023-06-10T09:43:19;97189.59;;;25.97;50.68
29045;BME280;16133;49.486;12.176;2023-06-10T09:45:47;97207.09;;;26.20;49.31
29045;BME280;16133;49.486;12.176;2023-06-10T09:48:13;97205.56;;;26.43;48.52
29045;BME280;16133;49.486;12.176;2023-06-10T09:50:43;97203.94;;;26.42;48.21
29045;BME280;16133;49.486;12.176;2023-06-10T09:53:09;97206.16;;;26.35;48.78
29045;BME280;16133;49.486;12.176;2023-06-10T09:55:41;97210.78;;;26.34;47.86
29045;BME280;16133;49.486;12.176;2023-06-10T09:58:07;97211.41;;;26.26;48.25
29045;BME280;16133;49.486;12.176;2023-06-10T10:00:33;97203.66;;;26.04;48.59
29045;BME280;16133;49.486;12.176;2023-06-10T10:02:59;97205.88;;;26.02;48.70
29045;BME280;16133;49.486;12.176;2023-06-10T10:05:25;97210.78;;;25.95;49.19
29045;BME280;16133;49.486;12.176;2023-06-10T10:07:51;97199.53;;;26.12;49.35
29045;BME280;16133;49.486;12.176;2023-06-10T10:10:19;97194.53;;;26.29;48.00
29045;BME280;16133;49.486;12.176;2023-06-10T10:12:46;97193.84;;;26.42;49.51
29045;BME280;16133;49.486;12.176;2023-06-10T10:15:12;97199.88;;;26.39;48.71
29045;BME280;16133;49.486;12.176;2023-06-10T10:17:49;97199.66;;;26.31;48.16
29045;BME280;16133;49.486;12.176;2023-06-10T10:20:20;97188.91;;;26.10;48.90
29045;BME280;16133;49.486;12.176;2023-06-10T10:22:49;97191.41;;;26.07;49.20
29045;BME280;16133;49.486;12.176;2023-06-10T10:25:23;97195.00;;;26.02;49.72
29045;BME280;16133;49.486;12.176;2023-06-10T10:27:56;97198.94;;;25.81;49.57
29045;BME280;16133;49.486;12.176;2023-06-10T10:30:23;97197.06;;;25.77;50.32
29045;BME280;16133;49.486;12.176;2023-06-10T10:33:16;97187.31;;;25.71;50.34
29045;BME280;16133;49.486;12.176;2023-06-10T10:35:44;97181.44;;;25.92;50.24
29045;BME280;16133;49.486;12.176;2023-06-10T10:38:11;97181.41;;;25.97;48.32
29045;BME280;16133;49.486;12.176;2023-06-10T10:40:37;97186.03;;;26.36;47.75
29045;BME280;16133;49.486;12.176;2023-06-10T10:43:03;97186.88;;;26.31;46.84
29045;BME280;16133;49.486;12.176;2023-06-10T10:45:29;97184.97;;;25.93;47.75
29045;BME280;16133;49.486;12.176;2023-06-10T10:47:55;97186.47;;;25.75;48.60
29045;BME280;16133;49.486;12.176;2023-06-10T10:50:22;97200.44;;;25.53;48.87
29045;BME280;16133;49.486;12.176;2023-06-10T10:53:01;97178.00;;;25.33;49.45
29045;BME280;16133;49.486;12.176;2023-06-10T10:55:27;97188.13;;;25.07;49.35
29045;BME280;16133;49.486;12.176;2023-06-10T11:00:29;97178.97;;;24.77;50.45
29045;BME280;16133;49.486;12.176;2023-06-10T11:03:08;97181.50;;;24.49;51.51
29045;BME280;16133;49.486;12.176;2023-06-10T11:05:40;97177.13;;;24.43;50.79
29045;BME280;16133;49.486;12.176;2023-06-10T11:08:08;97169.53;;;24.50;49.91
29045;BME280;16133;49.486;12.176;2023-06-10T11:10:35;97157.31;;;24.67;50.70
29045;BME280;16133;49.486;12.176;2023-06-10T11:13:14;97160.47;;;25.00;50.06
29045;BME280;16133;49.486;12.176;2023-06-10T11:15:48;97158.22;;;25.22;48.95
29045;BME280;16133;49.486;12.176;2023-06-10T11:18:27;97162.22;;;25.35;48.09
29045;BME280;16133;49.486;12.176;2023-06-10T11:20:57;97160.28;;;25.40;46.63
29045;BME280;16133;49.486;12.176;2023-06-10T11:23:30;97161.66;;;25.38;47.08
29045;BME280;16133;49.486;12.176;2023-06-10T11:28:43;97156.94;;;25.58;48.02
29045;BME280;16133;49.486;12.176;2023-06-10T11:31:30;97164.16;;;25.78;48.23
29045;BME280;16133;49.486;12.176;2023-06-10T11:34:06;97152.25;;;25.69;47.33
29045;BME280;16133;49.486;12.176;2023-06-10T11:36:33;97155.34;;;25.47;47.42
29045;BME280;16133;49.486;12.176;2023-06-10T11:39:02;97152.22;;;25.25;48.21
29045;BME280;16133;49.486;12.176;2023-06-10T11:41:29;97152.00;;;25.11;48.50
29045;BME280;16133;49.486;12.176;2023-06-10T11:43:57;97148.13;;;25.28;48.03
29045;BME280;16133;49.486;12.176;2023-06-10T11:46:26;97152.03;;;25.60;47.90
29045;BME280;16133;49.486;12.176;2023-06-10T11:48:54;97143.38;;;25.92;45.98
29045;BME280;16133;49.486;12.176;2023-06-10T11:51:20;97146.53;;;26.09;46.12
29045;BME280;16133;49.486;12.176;2023-06-10T11:53:49;97149.13;;;26.25;44.05
29045;BME280;16133;49.486;12.176;2023-06-10T11:56:22;97139.59;;;26.56;43.54
29045;BME280;16133;49.486;12.176;2023-06-10T11:59:09;97143.22;;;27.18;43.48
29045;BME280;16133;49.486;12.176;2023-06-10T12:01:38;97138.50;;;27.84;42.08
29045;BME280;16133;49.486;12.176;2023-06-10T12:04:10;97147.16;;;28.24;41.62
29045;BME280;16133;49.486;12.176;2023-06-10T12:06:43;97149.72;;;28.80;40.21
29045;BME280;16133;49.486;12.176;2023-06-10T12:11:51;97157.72;;;28.90;39.05
29045;BME280;16133;49.486;12.176;2023-06-10T12:14:55;97159.63;;;29.03;39.90
29045;BME280;16133;49.486;12.176;2023-06-10T12:17:42;97155.59;;;29.01;39.97
29045;BME280;16133;49.486;12.176;2023-06-10T12:20:09;97146.06;;;29.12;39.78
29045;BME280;16133;49.486;12.176;2023-06-10T12:22:49;97146.47;;;28.91;39.68
29045;BME280;16133;49.486;12.176;2023-06-10T12:25:14;97153.78;;;28.82;39.80
29045;BME280;16133;49.486;12.176;2023-06-10T12:27:40;97150.72;;;28.84;39.78
29045;BME280;16133;49.486;12.176;2023-06-10T12:30:19;97135.16;;;29.12;40.09
29045;BME280;16133;49.486;12.176;2023-06-10T12:32:46;97151.03;;;29.23;40.24
29045;BME280;16133;49.486;12.176;2023-06-10T12:35:13;97145.16;;;29.16;40.38
29045;BME280;16133;49.486;12.176;2023-06-10T12:37:40;97155.69;;;29.23;39.87
29045;BME280;16133;49.486;12.176;2023-06-10T12:40:06;97151.94;;;28.91;40.32
29045;BME280;16133;49.486;12.176;2023-06-10T12:42:35;97158.72;;;28.80;41.47
29045;BME280;16133;49.486;12.176;2023-06-10T12:45:01;97149.22;;;28.32;42.37
29045;BME280;16133;49.486;12.176;2023-06-10T12:47:34;97163.97;;;28.31;41.26
29045;BME280;16133;49.486;12.176;2023-06-10T12:50:01;97164.56;;;28.28;42.29
29045;BME280;16133;49.486;12.176;2023-06-10T12:52:28;97167.25;;;28.60;40.56
29045;BME280;16133;49.486;12.176;2023-06-10T12:54:54;97166.91;;;28.80;39.68
29045;BME280;16133;49.486;12.176;2023-06-10T12:57:21;97161.06;;;29.01;40.27
29045;BME280;16133;49.486;12.176;2023-06-10T12:59:46;97163.09;;;29.09;39.12